createdAt,value
2022-10-27T00:00:58.185Z,14.44
2022-10-27T00:03:26.037Z,14.39
2022-10-27T00:05:53.247Z,14.37
2022-10-27T00:08:22.713Z,14.31
2022-10-27T00:10:59.813Z,14.28
2022-10-27T00:13:27.893Z,14.25
2022-10-27T00:16:06.788Z,14.21
2022-10-27T00:18:34.411Z,14.16
2022-10-27T00:21:31.179Z,14.09
2022-10-27T00:23:58.353Z,14.06
2022-10-27T00:26:25.542Z,14.01
2022-10-27T00:28:52.769Z,13.98
2022-10-27T00:31:22.686Z,13.95
2022-10-27T00:33:51.506Z,13.92
2022-10-27T00:36:23.180Z,13.90
2022-10-27T00:38:55.401Z,13.87
2022-10-27T00:41:40.567Z,13.83
2022-10-27T00:44:40.057Z,13.78
2022-10-27T00:47:10.232Z,13.76
2022-10-27T00:50:14.514Z,13.75
2022-10-27T00:53:11.595Z,13.73
2022-10-27T00:55:39.968Z,13.72
2022-10-27T00:58:14.912Z,13.71
2022-10-27T01:00:43.548Z,13.70
2022-10-27T01:03:16.173Z,13.67
2022-10-27T01:05:45.651Z,13.66
2022-10-27T01:08:14.719Z,13.64
2022-10-27T01:10:41.891Z,13.63
2022-10-27T01:13:10.222Z,13.62
2022-10-27T01:16:18.185Z,13.61
2022-10-27T01:19:49.727Z,13.59
2022-10-27T01:22:44.825Z,13.62
2022-10-27T01:26:10.904Z,13.61
2022-10-27T01:29:34.548Z,13.61
2022-10-27T01:32:35.076Z,13.61
2022-10-27T01:35:46.131Z,13.65
2022-10-27T01:38:31.419Z,13.65
2022-10-27T01:41:47.877Z,13.68
2022-10-27T01:44:38.818Z,13.67
2022-10-27T01:47:07.749Z,13.68
2022-10-27T01:49:42.857Z,13.68
2022-10-27T01:52:50.774Z,13.70
2022-10-27T01:55:50.710Z,13.70
2022-10-27T01:59:06.944Z,13.73
2022-10-27T02:02:26.852Z,13.74
2022-10-27T02:05:17.530Z,13.76
2022-10-27T02:08:08.363Z,13.75
2022-10-27T02:11:04.015Z,13.77
2022-10-27T02:13:36.740Z,13.78
2022-10-27T02:16:23.270Z,13.78
2022-10-27T02:19:02.828Z,13.79
2022-10-27T02:21:34.499Z,13.79
2022-10-27T02:24:03.501Z,13.78
2022-10-27T02:26:56.802Z,13.79
2022-10-27T02:29:38.351Z,13.75
2022-10-27T02:32:13.323Z,13.76
2022-10-27T02:34:43.499Z,13.77
2022-10-27T02:37:19.533Z,13.75
2022-10-27T02:39:46.851Z,13.76
2022-10-27T02:42:14.117Z,13.76
2022-10-27T02:44:41.323Z,13.77
2022-10-27T02:47:10.071Z,13.74
2022-10-27T02:49:37.446Z,13.76
2022-10-27T02:52:04.901Z,13.75
2022-10-27T02:54:32.579Z,13.74
2022-10-27T02:56:59.990Z,13.73
2022-10-27T02:59:27.351Z,13.74
2022-10-27T03:01:54.737Z,13.72
2022-10-27T03:04:21.966Z,13.72
2022-10-27T03:06:49.243Z,13.72
2022-10-27T03:09:16.422Z,13.71
2022-10-27T03:11:46.140Z,13.71
2022-10-27T03:14:13.998Z,13.70
2022-10-27T03:16:41.294Z,13.68
2022-10-27T03:19:08.458Z,13.66
2022-10-27T03:21:35.633Z,13.65
2022-10-27T03:24:02.842Z,13.64
2022-10-27T03:26:30.022Z,13.61
2022-10-27T03:28:57.296Z,13.60
2022-10-27T03:31:24.502Z,13.58
2022-10-27T03:33:51.720Z,13.55
2022-10-27T03:36:18.858Z,13.55
2022-10-27T03:38:46.041Z,13.51
2022-10-27T03:41:13.161Z,13.50
2022-10-27T03:43:40.511Z,13.48
2022-10-27T03:46:10.216Z,13.45
2022-10-27T03:48:37.816Z,13.46
2022-10-27T03:51:05.007Z,13.44
2022-10-27T03:53:32.158Z,13.45
2022-10-27T03:55:59.383Z,13.41
2022-10-27T03:58:26.725Z,13.45
2022-10-27T04:00:54.015Z,13.46
2022-10-27T04:03:21.298Z,13.48
2022-10-27T04:05:51.697Z,13.52
2022-10-27T04:08:18.984Z,13.53
2022-10-27T04:10:46.711Z,13.53
2022-10-27T04:13:13.987Z,13.52
2022-10-27T04:15:41.161Z,13.49
2022-10-27T04:18:10.082Z,13.49
2022-10-27T04:20:37.263Z,13.49
2022-10-27T04:23:04.463Z,13.48
2022-10-27T04:25:31.649Z,13.47
2022-10-27T04:28:07.843Z,13.47
2022-10-27T04:30:36.866Z,13.42
2022-10-27T04:33:04.630Z,13.42
2022-10-27T04:35:31.993Z,13.42
2022-10-27T04:37:59.203Z,13.39
2022-10-27T04:40:26.607Z,13.42
2022-10-27T04:42:53.907Z,13.39
2022-10-27T04:45:21.736Z,13.37
2022-10-27T04:47:49.156Z,13.36
2022-10-27T04:50:18.224Z,13.33
2022-10-27T04:53:02.032Z,13.28
2022-10-27T04:55:32.932Z,13.24
2022-10-27T04:58:03.115Z,13.20
2022-10-27T05:03:04.971Z,13.13
2022-10-27T05:05:32.247Z,13.10
2022-10-27T05:08:03.017Z,13.07
2022-10-27T05:10:33.987Z,13.06
2022-10-27T05:13:02.348Z,13.02
2022-10-27T05:15:29.939Z,13.01
2022-10-27T05:17:57.126Z,12.99
2022-10-27T05:20:24.436Z,12.96
2022-10-27T05:22:51.642Z,12.94
2022-10-27T05:25:18.797Z,12.97
2022-10-27T05:27:46.158Z,12.96
2022-10-27T05:30:15.807Z,12.94
2022-10-27T05:32:44.942Z,12.95
2022-10-27T05:35:14.849Z,12.93
2022-10-27T05:37:46.954Z,12.92
2022-10-27T05:40:14.949Z,12.93
2022-10-27T05:42:55.419Z,12.93
2022-10-27T05:45:24.738Z,12.91
2022-10-27T05:48:07.788Z,12.96
2022-10-27T05:50:36.313Z,13.00
2022-10-27T05:53:04.414Z,13.00
2022-10-27T05:55:31.653Z,13.04
2022-10-27T05:58:02.979Z,13.08
2022-10-27T06:00:36.518Z,13.11
2022-10-27T06:03:08.119Z,13.13
2022-10-27T06:05:37.554Z,13.12
2022-10-27T06:08:05.168Z,13.13
2022-10-27T06:10:32.506Z,13.14
2022-10-27T06:13:05.715Z,13.14
2022-10-27T06:15:35.058Z,13.15
2022-10-27T06:18:03.242Z,13.16
2022-10-27T06:20:30.978Z,13.17
2022-10-27T06:22:58.457Z,13.16
2022-10-27T06:25:26.158Z,13.19
2022-10-27T06:27:53.513Z,13.18
2022-10-27T06:30:20.980Z,13.19
2022-10-27T06:32:48.198Z,13.21
2022-10-27T06:35:15.507Z,13.21
2022-10-27T06:37:46.727Z,13.21
2022-10-27T06:40:19.027Z,13.21
2022-10-27T06:43:05.795Z,13.21
2022-10-27T06:45:34.885Z,13.22
2022-10-27T06:48:05.911Z,13.28
2022-10-27T06:50:34.772Z,13.29
2022-10-27T06:53:02.795Z,13.27
2022-10-27T06:55:31.588Z,13.27
2022-10-27T06:57:58.840Z,13.26
2022-10-27T07:00:26.146Z,13.26
2022-10-27T07:02:53.606Z,13.26
2022-10-27T07:05:21.233Z,13.28
2022-10-27T07:07:51.569Z,13.30
2022-10-27T07:10:21.270Z,13.30
2022-10-27T07:12:59.035Z,13.31
2022-10-27T07:15:33.813Z,13.32
2022-10-27T07:18:08.624Z,13.31
2022-10-27T07:20:39.850Z,13.33
2022-10-27T07:23:10.552Z,13.36
2022-10-27T07:25:39.145Z,13.39
2022-10-27T07:28:06.830Z,13.41
2022-10-27T07:30:39.490Z,13.44
2022-10-27T07:33:07.015Z,13.45
2022-10-27T07:35:34.880Z,13.47
2022-10-27T07:38:02.791Z,13.49
2022-10-27T07:40:33.179Z,13.53
2022-10-27T07:43:06.640Z,13.56
2022-10-27T07:45:38.894Z,13.59
2022-10-27T07:48:12.254Z,13.68
2022-10-27T07:50:40.508Z,13.73
2022-10-27T07:53:08.481Z,13.79
2022-10-27T07:55:37.535Z,13.85
2022-10-27T07:58:16.376Z,13.92
2022-10-27T08:00:47.880Z,14.02
2022-10-27T08:03:18.951Z,14.15
2022-10-27T08:05:47.073Z,14.27
2022-10-27T08:08:16.188Z,14.40
2022-10-27T08:10:45.713Z,14.45
2022-10-27T08:13:13.335Z,14.59
2022-10-27T08:15:42.631Z,14.78
2022-10-27T08:18:11.488Z,14.93
2022-10-27T08:20:44.284Z,15.05
2022-10-27T08:23:20.412Z,15.06
2022-10-27T08:25:48.360Z,15.10
2022-10-27T08:28:15.974Z,15.15
2022-10-27T08:30:51.818Z,15.27
2022-10-27T08:33:21.619Z,15.30
2022-10-27T08:35:51.278Z,15.34
2022-10-27T08:38:19.664Z,15.39
2022-10-27T08:41:34.343Z,15.44
2022-10-27T08:44:26.975Z,15.47
2022-10-27T08:47:05.433Z,15.52
2022-10-27T08:50:04.785Z,15.53
2022-10-27T08:53:05.104Z,15.58
2022-10-27T08:55:52.345Z,15.61
2022-10-27T08:58:44.934Z,15.70
2022-10-27T09:01:46.667Z,15.85
2022-10-27T09:04:38.054Z,15.94
2022-10-27T09:07:28.409Z,16.01
2022-10-27T09:10:06.124Z,16.09
2022-10-27T09:13:35.050Z,16.19
2022-10-27T09:16:12.639Z,16.28
2022-10-27T09:18:58.536Z,16.38
2022-10-27T09:21:29.921Z,16.49
2022-10-27T09:24:13.296Z,16.62
2022-10-27T09:26:45.555Z,16.73
2022-10-27T09:29:22.907Z,16.83
2022-10-27T09:32:07.742Z,16.95
2022-10-27T09:34:53.537Z,17.05
2022-10-27T09:37:21.408Z,17.19
2022-10-27T09:39:54.215Z,17.31
2022-10-27T09:42:22.193Z,17.42
2022-10-27T09:45:00.756Z,17.45
2022-10-27T09:47:40.239Z,17.51
2022-10-27T09:50:36.697Z,17.71
2022-10-27T09:53:05.150Z,17.77
2022-10-27T09:55:53.670Z,17.87
2022-10-27T09:58:21.486Z,17.92
2022-10-27T10:01:01.394Z,17.92
2022-10-27T10:03:29.029Z,17.97
2022-10-27T10:06:07.448Z,18.16
2022-10-27T10:08:36.830Z,18.20
2022-10-27T10:11:19.532Z,18.35
2022-10-27T10:14:04.036Z,18.74
2022-10-27T10:16:33.237Z,19.16
2022-10-27T10:19:22.775Z,19.69
2022-10-27T10:22:00.815Z,20.15
2022-10-27T10:24:36.378Z,20.49
2022-10-27T10:27:06.806Z,20.71
2022-10-27T10:29:50.633Z,20.83
2022-10-27T10:32:29.130Z,20.86
2022-10-27T10:34:56.950Z,20.80
2022-10-27T10:37:37.408Z,20.64
2022-10-27T10:40:19.287Z,20.48
2022-10-27T10:43:12.019Z,20.34
2022-10-27T10:45:41.205Z,20.24
2022-10-27T10:48:48.068Z,20.16
2022-10-27T10:51:35.955Z,20.09
2022-10-27T10:54:21.653Z,20.04
2022-10-27T10:56:54.585Z,19.99
2022-10-27T10:59:29.724Z,19.92
2022-10-27T11:02:29.372Z,19.93
2022-10-27T11:05:11.858Z,19.96
2022-10-27T11:07:41.079Z,19.99
2022-10-27T11:10:21.817Z,20.02
2022-10-27T11:13:06.985Z,20.06
2022-10-27T11:15:47.861Z,20.02
2022-10-27T11:18:50.271Z,20.12
2022-10-27T11:21:42.338Z,20.08
2022-10-27T11:24:25.449Z,20.01
2022-10-27T11:27:07.809Z,20.00
2022-10-27T11:30:06.434Z,19.98
2022-10-27T11:33:09.805Z,20.00
2022-10-27T11:36:19.078Z,19.98
2022-10-27T11:39:16.162Z,19.97
2022-10-27T11:42:32.475Z,19.98
2022-10-27T11:45:19.492Z,20.09
2022-10-27T11:47:58.346Z,20.07
2022-10-27T11:50:53.415Z,20.10
2022-10-27T11:53:21.279Z,20.12
2022-10-27T11:56:34.421Z,20.13
2022-10-27T11:59:48.030Z,20.18
2022-10-27T12:03:13.692Z,20.16
2022-10-27T12:06:29.214Z,20.13
2022-10-27T12:09:49.420Z,20.10
2022-10-27T12:12:35.909Z,20.12
2022-10-27T12:16:11.075Z,20.07
2022-10-27T12:18:57.087Z,19.99
2022-10-27T12:21:50.547Z,19.91
2022-10-27T12:24:38.702Z,19.90
2022-10-27T12:27:41.744Z,19.92
2022-10-27T12:30:21.652Z,19.91
2022-10-27T12:33:06.038Z,19.97
2022-10-27T12:35:56.958Z,20.04
2022-10-27T12:38:51.962Z,20.12
2022-10-27T12:42:01.423Z,20.17
2022-10-27T12:44:53.443Z,20.15
2022-10-27T12:47:42.898Z,20.14
2022-10-27T12:50:49.824Z,20.12
2022-10-27T12:54:33.045Z,20.13
2022-10-27T12:57:42.876Z,20.08
2022-10-27T13:00:18.085Z,20.15
2022-10-27T13:03:31.300Z,20.13
2022-10-27T13:06:55.424Z,20.12
2022-10-27T13:09:37.380Z,20.08
2022-10-27T13:12:25.794Z,20.10
2022-10-27T13:15:04.214Z,20.10
2022-10-27T13:18:37.976Z,20.16
2022-10-27T13:21:24.162Z,20.15
2022-10-27T13:24:25.878Z,20.16
2022-10-27T13:27:14.188Z,20.15
2022-10-27T13:30:07.033Z,20.09
2022-10-27T13:32:49.531Z,20.18
2022-10-27T13:35:20.732Z,20.13
2022-10-27T13:37:59.717Z,20.10
2022-10-27T13:40:26.793Z,20.10
2022-10-27T13:43:37.618Z,20.10
2022-10-27T13:46:04.895Z,20.13
2022-10-27T13:48:34.424Z,20.16
2022-10-27T13:52:15.772Z,20.13
2022-10-27T13:55:20.275Z,20.09
2022-10-27T13:57:59.112Z,20.08
2022-10-27T14:01:19.525Z,20.07
2022-10-27T14:04:49.936Z,20.02
2022-10-27T14:07:18.807Z,20.12
2022-10-27T14:09:50.892Z,20.11
2022-10-27T14:12:37.630Z,20.06
2022-10-27T14:15:27.654Z,20.05
2022-10-27T14:17:57.630Z,20.10
2022-10-27T14:20:38.559Z,20.18
2022-10-27T14:23:16.919Z,20.18
2022-10-27T14:25:44.674Z,20.15
2022-10-27T14:28:23.923Z,20.13
2022-10-27T14:31:20.702Z,20.16
2022-10-27T14:33:48.390Z,20.20
2022-10-27T14:36:34.046Z,20.18
2022-10-27T14:39:26.414Z,20.15
2022-10-27T14:42:02.447Z,20.11
2022-10-27T14:44:35.793Z,20.13
2022-10-27T14:47:15.608Z,20.13
2022-10-27T14:49:58.882Z,20.17
2022-10-27T14:52:50.590Z,20.18
2022-10-27T14:55:38.940Z,20.15
2022-10-27T14:58:21.141Z,20.15
2022-10-27T15:00:51.725Z,20.17
2022-10-27T15:03:18.905Z,20.16
2022-10-27T15:05:50.111Z,20.18
2022-10-27T15:08:25.838Z,20.19
2022-10-27T15:11:00.217Z,20.15
2022-10-27T15:13:28.353Z,20.15
2022-10-27T15:15:59.127Z,20.14
2022-10-27T15:18:43.425Z,20.13
2022-10-27T15:21:20.306Z,20.10
2022-10-27T15:23:56.064Z,20.08
2022-10-27T15:26:29.546Z,20.05
2022-10-27T15:29:15.942Z,20.03
2022-10-27T15:31:46.627Z,20.02
2022-10-27T15:34:38.508Z,20.01
2022-10-27T15:37:26.293Z,19.99
2022-10-27T15:39:56.149Z,19.97
2022-10-27T15:42:35.984Z,20.00
2022-10-27T15:45:39.618Z,19.99
2022-10-27T15:48:32.088Z,19.98
2022-10-27T15:51:17.454Z,19.94
2022-10-27T15:53:55.108Z,19.94
2022-10-27T15:56:40.935Z,19.94
2022-10-27T15:59:28.056Z,19.94
2022-10-27T16:02:05.755Z,19.92
2022-10-27T16:04:40.104Z,19.92
2022-10-27T16:07:13.173Z,19.90
2022-10-27T16:09:49.813Z,19.88
2022-10-27T16:12:41.689Z,19.86
2022-10-27T16:15:25.305Z,19.85
2022-10-27T16:17:58.527Z,19.81
2022-10-27T16:20:34.271Z,19.83
2022-10-27T16:23:01.791Z,19.83
2022-10-27T16:25:33.456Z,19.81
2022-10-27T16:28:05.766Z,19.81
2022-10-27T16:30:37.114Z,19.84
2022-10-27T16:33:05.510Z,19.81
2022-10-27T16:35:32.679Z,19.79
2022-10-27T16:38:01.065Z,19.77
2022-10-27T16:40:28.732Z,19.76
2022-10-27T16:42:59.996Z,19.72
2022-10-27T16:45:27.198Z,19.66
2022-10-27T16:47:54.865Z,19.63
2022-10-27T16:50:22.986Z,19.62
2022-10-27T16:52:56.247Z,19.53
2022-10-27T16:55:23.937Z,19.47
2022-10-27T16:57:56.479Z,19.39
2022-10-27T17:00:24.100Z,19.35
2022-10-27T17:02:51.317Z,19.31
2022-10-27T17:05:18.614Z,19.27
2022-10-27T17:07:46.978Z,19.22
2022-10-27T17:10:16.669Z,19.18
2022-10-27T17:12:44.219Z,19.13
2022-10-27T17:15:11.505Z,19.09
2022-10-27T17:17:38.761Z,19.04
2022-10-27T17:20:06.521Z,18.99
2022-10-27T17:22:33.925Z,18.95
2022-10-27T17:25:01.151Z,18.91
2022-10-27T17:27:28.382Z,18.87
2022-10-27T17:29:55.510Z,18.84
2022-10-27T17:32:22.740Z,18.80
2022-10-27T17:34:49.918Z,18.76
2022-10-27T17:37:17.111Z,18.73
2022-10-27T17:39:44.278Z,18.70
2022-10-27T17:42:11.734Z,18.67
2022-10-27T17:44:38.919Z,18.63
2022-10-27T17:47:06.111Z,18.58
2022-10-27T17:49:33.382Z,18.54
2022-10-27T17:52:02.218Z,18.46
2022-10-27T17:54:29.433Z,18.42
2022-10-27T17:56:56.545Z,18.36
2022-10-27T17:59:23.733Z,18.28
2022-10-27T18:01:51.168Z,18.24
2022-10-27T18:04:18.468Z,18.18
2022-10-27T18:06:45.771Z,18.13
2022-10-27T18:09:13.599Z,18.08
2022-10-27T18:11:42.095Z,18.04
2022-10-27T18:14:18.757Z,18.01
2022-10-27T18:16:46.187Z,17.97
2022-10-27T18:19:16.207Z,17.91
2022-10-27T18:21:47.850Z,17.89
2022-10-27T18:24:17.137Z,17.85
2022-10-27T18:26:48.196Z,17.82
2022-10-27T18:29:18.607Z,17.77
2022-10-27T18:31:48.368Z,17.73
2022-10-27T18:34:16.888Z,17.69
2022-10-27T18:36:45.560Z,17.68
2022-10-27T18:39:18.644Z,17.59
2022-10-27T18:41:49.101Z,17.60
2022-10-27T18:44:17.079Z,17.58
2022-10-27T18:46:44.413Z,17.55
2022-10-27T18:49:20.365Z,17.50
2022-10-27T18:51:52.735Z,17.49
2022-10-27T18:54:19.990Z,17.46
2022-10-27T18:56:47.178Z,17.45
2022-10-27T18:59:14.536Z,17.44
2022-10-27T19:01:43.410Z,17.42
2022-10-27T19:04:10.802Z,17.39
2022-10-27T19:06:38.514Z,17.38
2022-10-27T19:09:06.475Z,17.38
2022-10-27T19:11:36.168Z,17.35
2022-10-27T19:14:04.801Z,17.29
2022-10-27T19:16:32.776Z,17.31
2022-10-27T19:19:00.729Z,17.30
2022-10-27T19:21:29.755Z,17.28
2022-10-27T19:24:02.473Z,17.29
2022-10-27T19:26:34.005Z,17.28
2022-10-27T19:29:01.302Z,17.29
2022-10-27T19:31:36.278Z,17.29
2022-10-27T19:34:04.962Z,17.28
2022-10-27T19:36:35.420Z,17.27
2022-10-27T19:39:07.920Z,17.25
2022-10-27T19:41:36.809Z,17.26
2022-10-27T19:44:05.930Z,17.25
2022-10-27T19:46:33.630Z,17.30
2022-10-27T19:49:05.685Z,17.27
2022-10-27T19:51:39.491Z,17.28
2022-10-27T19:54:14.183Z,17.29
2022-10-27T19:56:49.688Z,17.30
2022-10-27T19:59:24.183Z,17.31
2022-10-27T20:01:54.104Z,17.35
2022-10-27T20:04:21.710Z,17.38
2022-10-27T20:06:49.361Z,17.38
2022-10-27T20:09:20.866Z,17.37
2022-10-27T20:11:49.273Z,17.37
2022-10-27T20:14:17.119Z,17.35
2022-10-27T20:16:47.288Z,17.34
2022-10-27T20:19:19.438Z,17.32
2022-10-27T20:21:48.766Z,17.29
2022-10-27T20:24:17.647Z,17.27
2022-10-27T20:26:49.503Z,17.24
2022-10-27T20:29:21.585Z,17.24
2022-10-27T20:31:51.483Z,17.22
2022-10-27T20:34:18.746Z,17.20
2022-10-27T20:36:46.262Z,17.24
2022-10-27T20:39:15.120Z,17.23
2022-10-27T20:41:42.532Z,17.25
2022-10-27T20:44:09.877Z,17.23
2022-10-27T20:46:37.250Z,17.23
2022-10-27T20:49:04.423Z,17.22
2022-10-27T20:51:33.552Z,17.17
2022-10-27T20:54:02.965Z,17.17
2022-10-27T20:56:35.523Z,17.17
2022-10-27T20:59:05.242Z,17.17
2022-10-27T21:01:43.516Z,17.17
2022-10-27T21:04:17.646Z,17.16
2022-10-27T21:06:49.422Z,17.11
2022-10-27T21:09:21.699Z,17.09
2022-10-27T21:11:49.547Z,17.07
2022-10-27T21:14:17.859Z,17.05
2022-10-27T21:16:50.521Z,17.01
2022-10-27T21:19:19.341Z,16.95
2022-10-27T21:21:47.057Z,16.91
2022-10-27T21:24:17.021Z,16.91
2022-10-27T21:26:45.532Z,16.91
2022-10-27T21:29:13.216Z,16.91
2022-10-27T21:31:42.204Z,16.91
2022-10-27T21:34:09.513Z,16.90
2022-10-27T21:36:36.748Z,16.90
2022-10-27T21:39:08.694Z,16.89
2022-10-27T21:41:36.760Z,16.88
2022-10-27T21:44:04.514Z,16.92
2022-10-27T21:46:32.437Z,16.96
2022-10-27T21:49:02.056Z,16.98
2022-10-27T21:51:30.806Z,16.99
2022-10-27T21:54:04.227Z,16.97
2022-10-27T21:56:35.442Z,17.01
2022-10-27T21:59:03.772Z,16.98
2022-10-27T22:01:31.598Z,16.97
2022-10-27T22:03:59.067Z,16.96
2022-10-27T22:06:34.410Z,16.93
2022-10-27T22:09:02.248Z,16.91
2022-10-27T22:11:36.417Z,16.88
2022-10-27T22:14:04.656Z,16.86
2022-10-27T22:16:34.181Z,16.83
2022-10-27T22:19:05.837Z,16.82
2022-10-27T22:21:39.179Z,16.83
2022-10-27T22:24:08.169Z,16.84
2022-10-27T22:26:38.138Z,16.83
2022-10-27T22:29:05.320Z,16.80
2022-10-27T22:31:32.796Z,16.76
2022-10-27T22:34:02.009Z,16.74
2022-10-27T22:36:30.281Z,16.71
2022-10-27T22:39:02.165Z,16.66
2022-10-27T22:41:32.758Z,16.62
2022-10-27T22:44:00.130Z,16.55
2022-10-27T22:46:31.985Z,16.48
2022-10-27T22:48:59.932Z,16.40
2022-10-27T22:51:28.822Z,16.35
2022-10-27T22:53:58.075Z,16.30
2022-10-27T22:56:31.883Z,16.26
2022-10-27T22:59:03.597Z,16.22
2022-10-27T23:01:38.686Z,16.16
2022-10-27T23:04:12.290Z,16.09
2022-10-27T23:06:39.664Z,16.02
2022-10-27T23:09:18.247Z,15.95
2022-10-27T23:11:47.160Z,15.89
2022-10-27T23:14:16.849Z,15.85
2022-10-27T23:16:44.905Z,15.77
2022-10-27T23:19:13.983Z,15.76
2022-10-27T23:21:41.310Z,15.72
2022-10-27T23:24:08.764Z,15.69
2022-10-27T23:26:39.201Z,15.68
2022-10-27T23:29:13.576Z,15.69
2022-10-27T23:31:43.295Z,15.68
2022-10-27T23:34:12.410Z,15.67
2022-10-27T23:36:39.822Z,15.66
2022-10-27T23:39:07.174Z,15.65
2022-10-27T23:41:34.460Z,15.63
2022-10-27T23:44:02.590Z,15.61
2022-10-27T23:46:30.518Z,15.57
2022-10-27T23:48:59.248Z,15.54
2022-10-27T23:51:27.328Z,15.50
2022-10-27T23:53:58.141Z,15.45
2022-10-27T23:56:26.072Z,15.41
2022-10-27T23:58:53.397Z,15.36
